createdAt,value
2019-02-17T00:02:26.121Z,60.16
2019-02-17T00:04:57.726Z,60.38
2019-02-17T00:07:29.344Z,60.20
2019-02-17T00:10:01.507Z,60.34
2019-02-17T00:12:33.062Z,60.21
2019-02-17T00:15:06.885Z,60.39
2019-02-17T00:17:38.531Z,60.53
2019-02-17T00:20:10.157Z,60.52
2019-02-17T00:22:41.773Z,60.48
2019-02-17T00:25:13.321Z,60.53
2019-02-17T00:27:44.842Z,60.60
2019-02-17T00:30:16.354Z,60.54
2019-02-17T00:32:47.928Z,61.04
2019-02-17T00:35:19.618Z,61.21
2019-02-17T00:37:51.192Z,61.08
2019-02-17T00:40:22.821Z,61.07
2019-02-17T00:42:54.358Z,61.05
2019-02-17T00:45:25.960Z,61.08
2019-02-17T00:47:57.523Z,61.04
2019-02-17T00:50:29.051Z,61.13
2019-02-17T00:53:00.630Z,61.13
2019-02-17T00:55:32.177Z,60.89
2019-02-17T00:58:06.654Z,60.77
2019-02-17T01:00:38.263Z,60.72
2019-02-17T01:03:09.866Z,60.26
2019-02-17T01:05:42.635Z,60.14
2019-02-17T01:08:14.237Z,60.06
2019-02-17T01:10:45.790Z,60.44
2019-02-17T01:13:17.299Z,60.79
2019-02-17T01:15:48.885Z,61.07
2019-02-17T01:18:20.444Z,61.27
2019-02-17T01:20:53.027Z,61.25
2019-02-17T01:23:24.567Z,61.18
2019-02-17T01:25:56.100Z,61.20
2019-02-17T01:28:27.635Z,61.24
2019-02-17T01:30:59.160Z,61.08
2019-02-17T01:33:30.707Z,60.85
2019-02-17T01:36:02.302Z,60.54
2019-02-17T01:38:33.878Z,60.39
2019-02-17T01:41:05.612Z,60.33
2019-02-17T01:43:37.228Z,60.47
2019-02-17T01:46:08.876Z,60.47
2019-02-17T01:48:40.460Z,60.59
2019-02-17T01:51:12.089Z,60.66
2019-02-17T01:53:43.678Z,60.60
2019-02-17T01:56:15.289Z,60.54
2019-02-17T01:58:46.951Z,60.83
2019-02-17T02:01:18.625Z,60.83
2019-02-17T02:03:50.129Z,60.80
2019-02-17T02:06:22.634Z,60.62
2019-02-17T02:08:54.143Z,60.45
2019-02-17T02:11:25.745Z,60.26
2019-02-17T02:13:57.359Z,60.12
2019-02-17T02:16:28.936Z,59.86
2019-02-17T02:19:00.994Z,59.70
2019-02-17T02:21:32.512Z,59.70
2019-02-17T02:24:04.300Z,59.54
2019-02-17T02:26:35.816Z,59.49
2019-02-17T02:29:07.355Z,59.47
2019-02-17T02:31:38.937Z,59.39
2019-02-17T02:34:10.567Z,59.26
2019-02-17T02:36:42.141Z,59.23
2019-02-17T02:39:14.145Z,59.06
2019-02-17T02:41:45.665Z,58.92
2019-02-17T02:44:17.254Z,58.83
2019-02-17T02:46:48.792Z,58.64
2019-02-17T02:49:20.299Z,58.49
2019-02-17T02:51:51.876Z,58.30
2019-02-17T02:54:23.395Z,58.58
2019-02-17T02:56:54.921Z,58.14
2019-02-17T02:59:26.500Z,58.07
2019-02-17T03:01:58.100Z,58.52
2019-02-17T03:04:29.750Z,58.61
2019-02-17T03:07:01.818Z,59.03
2019-02-17T03:09:33.461Z,59.03
2019-02-17T03:12:05.045Z,59.35
2019-02-17T03:14:36.657Z,59.49
2019-02-17T03:17:08.207Z,59.43
2019-02-17T03:19:39.728Z,59.87
2019-02-17T03:22:11.272Z,60.04
2019-02-17T03:24:42.936Z,59.67
2019-02-17T03:27:14.605Z,60.08
2019-02-17T03:29:46.169Z,60.14
2019-02-17T03:32:17.769Z,60.39
2019-02-17T03:34:49.398Z,61.00
2019-02-17T03:37:20.951Z,60.87
2019-02-17T03:39:52.579Z,60.99
2019-02-17T03:42:24.139Z,60.79
2019-02-17T03:44:55.891Z,60.62
2019-02-17T03:47:27.644Z,60.70
2019-02-17T03:49:59.182Z,61.06
2019-02-17T03:52:30.800Z,61.31
2019-02-17T03:55:02.328Z,61.44
2019-02-17T03:57:33.910Z,61.74
2019-02-17T04:00:16.400Z,61.63
2019-02-17T04:02:41.403Z,61.69
2019-02-17T04:05:13.016Z,61.29
2019-02-17T04:07:44.553Z,61.28
2019-02-17T04:10:16.068Z,61.67
2019-02-17T04:12:47.677Z,61.79
2019-02-17T04:15:19.355Z,61.76
2019-02-17T04:17:50.946Z,61.97
2019-02-17T04:20:22.566Z,62.18
2019-02-17T04:22:54.091Z,61.85
2019-02-17T04:25:25.811Z,61.82
2019-02-17T04:27:57.359Z,61.92
2019-02-17T04:30:29.817Z,61.94
2019-02-17T04:33:01.653Z,62.01
2019-02-17T04:35:33.164Z,62.17
2019-02-17T04:38:04.704Z,61.71
2019-02-17T04:40:36.241Z,61.80
2019-02-17T04:43:07.813Z,62.01
2019-02-17T04:45:39.522Z,62.11
2019-02-17T04:48:11.221Z,62.41
2019-02-17T04:50:42.820Z,62.44
2019-02-17T04:53:14.347Z,62.65
2019-02-17T04:55:45.865Z,62.75
2019-02-17T04:58:17.473Z,62.24
2019-02-17T05:00:49.998Z,62.44
2019-02-17T05:03:21.991Z,62.67
2019-02-17T05:05:53.665Z,62.89
2019-02-17T05:08:25.197Z,63.09
2019-02-17T05:10:56.811Z,63.09
2019-02-17T05:13:28.401Z,63.09
2019-02-17T05:15:59.921Z,63.08
2019-02-17T05:18:31.441Z,63.04
2019-02-17T05:21:02.973Z,63.03
2019-02-17T05:23:34.598Z,62.94
2019-02-17T05:26:06.234Z,63.09
2019-02-17T05:28:37.817Z,63.05
2019-02-17T05:31:09.554Z,62.98
2019-02-17T05:33:41.081Z,63.17
2019-02-17T05:36:12.624Z,63.10
2019-02-17T05:38:44.202Z,63.09
2019-02-17T05:41:15.808Z,63.19
2019-02-17T05:43:47.339Z,63.34
2019-02-17T05:46:18.869Z,63.50
2019-02-17T05:48:50.526Z,63.65
2019-02-17T05:51:22.052Z,63.86
2019-02-17T05:53:53.571Z,63.87
2019-02-17T05:56:25.070Z,63.89
2019-02-17T05:58:56.586Z,63.80
2019-02-17T06:01:28.112Z,63.50
2019-02-17T06:03:59.621Z,63.58
2019-02-17T06:06:31.141Z,63.62
2019-02-17T06:09:03.100Z,63.72
2019-02-17T06:11:34.619Z,63.83
2019-02-17T06:14:06.130Z,63.61
2019-02-17T06:16:37.654Z,63.39
2019-02-17T06:19:09.155Z,63.40
2019-02-17T06:21:40.669Z,63.31
2019-02-17T06:24:12.222Z,63.42
2019-02-17T06:26:43.807Z,63.24
2019-02-17T06:29:15.329Z,63.25
2019-02-17T06:31:46.855Z,63.29
2019-02-17T06:34:18.373Z,63.26
2019-02-17T06:36:49.912Z,63.38
2019-02-17T06:39:21.422Z,63.28
2019-02-17T06:41:53.025Z,63.26
2019-02-17T06:44:24.578Z,63.13
2019-02-17T06:46:57.375Z,62.87
2019-02-17T06:49:28.970Z,62.80
2019-02-17T06:52:00.484Z,62.49
2019-02-17T06:54:31.982Z,62.74
2019-02-17T06:57:05.139Z,62.79
2019-02-17T06:59:36.660Z,62.76
2019-02-17T07:02:08.147Z,62.84
2019-02-17T07:04:57.008Z,62.62
2019-02-17T07:07:29.075Z,62.35
2019-02-17T07:10:00.687Z,62.33
2019-02-17T07:12:32.206Z,62.34
2019-02-17T07:15:04.561Z,62.27
2019-02-17T07:17:36.074Z,62.22
2019-02-17T07:20:09.651Z,62.15
2019-02-17T07:22:40.824Z,62.14
2019-02-17T07:25:12.406Z,62.66
2019-02-17T07:27:43.919Z,62.73
2019-02-17T07:30:15.442Z,62.39
2019-02-17T07:32:47.003Z,61.97
2019-02-17T07:35:18.501Z,61.80
2019-02-17T07:37:50.015Z,61.93
2019-02-17T07:40:21.543Z,61.82
2019-02-17T07:42:53.134Z,61.49
2019-02-17T07:45:24.635Z,61.28
2019-02-17T07:47:56.153Z,61.86
2019-02-17T07:50:27.672Z,62.03
2019-02-17T07:52:59.202Z,61.74
2019-02-17T07:55:30.729Z,61.71
2019-02-17T07:58:02.319Z,60.94
2019-02-17T08:00:33.836Z,60.73
2019-02-17T08:03:05.355Z,60.34
2019-02-17T08:05:36.862Z,59.88
2019-02-17T08:08:08.376Z,59.71
2019-02-17T08:10:39.894Z,59.79
2019-02-17T08:13:11.393Z,59.65
2019-02-17T08:15:42.912Z,59.21
2019-02-17T08:18:14.427Z,58.58
2019-02-17T08:20:45.953Z,57.88
2019-02-17T08:23:17.466Z,57.25
2019-02-17T08:25:48.988Z,56.77
2019-02-17T08:28:20.487Z,56.70
2019-02-17T08:30:52.002Z,56.50
2019-02-17T08:33:23.495Z,56.05
2019-02-17T08:35:54.993Z,56.25
2019-02-17T08:38:26.496Z,55.65
2019-02-17T08:41:00.747Z,55.72
2019-02-17T08:43:32.543Z,55.64
2019-02-17T08:46:04.653Z,55.48
2019-02-17T08:48:36.213Z,55.04
2019-02-17T08:51:07.732Z,54.52
2019-02-17T08:53:39.232Z,54.27
2019-02-17T08:56:10.754Z,54.17
2019-02-17T08:58:42.335Z,54.15
2019-02-17T09:01:13.861Z,53.89
2019-02-17T09:03:45.378Z,53.58
2019-02-17T09:06:16.968Z,52.89
2019-02-17T09:08:48.467Z,52.57
2019-02-17T09:11:19.984Z,52.71
2019-02-17T09:13:51.570Z,52.73
2019-02-17T09:16:23.084Z,52.23
2019-02-17T09:18:54.597Z,51.55
2019-02-17T09:21:26.102Z,51.46
2019-02-17T09:23:57.732Z,51.86
2019-02-17T09:26:29.753Z,51.23
2019-02-17T09:29:01.418Z,50.91
2019-02-17T09:31:32.936Z,51.10
2019-02-17T09:34:04.461Z,50.94
2019-02-17T09:36:37.039Z,50.64
2019-02-17T09:39:09.705Z,50.42
2019-02-17T09:41:41.222Z,49.67
2019-02-17T09:44:12.752Z,49.08
2019-02-17T09:46:44.266Z,49.42
2019-02-17T09:49:15.773Z,49.61
2019-02-17T09:51:47.294Z,49.52
2019-02-17T09:54:18.803Z,49.15
2019-02-17T09:56:50.444Z,49.47
2019-02-17T09:59:21.993Z,48.94
2019-02-17T10:01:53.510Z,48.68
2019-02-17T10:04:25.028Z,49.05
2019-02-17T10:06:56.554Z,49.75
2019-02-17T10:09:28.048Z,50.13
2019-02-17T10:11:59.695Z,49.91
2019-02-17T10:14:31.341Z,49.88
2019-02-17T10:17:02.864Z,50.17
2019-02-17T10:19:34.398Z,50.33
2019-02-17T10:22:07.580Z,50.99
2019-02-17T10:24:39.108Z,51.90
2019-02-17T10:27:10.673Z,53.42
2019-02-17T10:29:42.203Z,54.37
2019-02-17T10:32:14.788Z,55.67
2019-02-17T10:34:46.319Z,55.80
2019-02-17T10:37:17.849Z,55.41
2019-02-17T10:39:49.450Z,55.31
2019-02-17T10:42:20.977Z,54.53
2019-02-17T10:44:52.645Z,54.07
2019-02-17T10:47:24.169Z,53.49
2019-02-17T10:49:55.765Z,53.49
2019-02-17T10:52:27.274Z,54.35
2019-02-17T10:54:59.876Z,55.34
2019-02-17T10:57:31.402Z,55.97
2019-02-17T11:00:03.002Z,56.95
2019-02-17T11:02:34.504Z,57.71
2019-02-17T11:05:08.429Z,57.89
2019-02-17T11:07:39.999Z,57.89
2019-02-17T11:10:12.830Z,57.61
2019-02-17T11:12:44.358Z,57.85
2019-02-17T11:15:20.608Z,58.08
2019-02-17T11:17:52.097Z,58.42
2019-02-17T11:20:23.641Z,58.37
2019-02-17T11:22:55.205Z,58.71
2019-02-17T11:25:26.721Z,58.96
2019-02-17T11:27:58.256Z,59.32
2019-02-17T11:30:29.754Z,59.70
2019-02-17T11:33:01.355Z,59.32
2019-02-17T11:35:32.973Z,59.08
2019-02-17T11:38:04.500Z,59.19
2019-02-17T11:40:36.093Z,58.47
2019-02-17T11:43:07.626Z,57.94
2019-02-17T11:45:39.131Z,58.05
2019-02-17T11:48:10.650Z,58.18
2019-02-17T11:50:42.187Z,58.12
2019-02-17T11:53:13.790Z,58.00
2019-02-17T11:55:45.322Z,58.47
2019-02-17T11:58:16.841Z,58.31
2019-02-17T12:00:48.371Z,58.38
2019-02-17T12:03:19.877Z,57.96
2019-02-17T12:05:52.472Z,57.45
2019-02-17T12:08:24.007Z,57.70
2019-02-17T12:10:55.605Z,57.63
2019-02-17T12:13:27.139Z,57.42
2019-02-17T12:15:58.649Z,57.22
2019-02-17T12:18:30.219Z,56.57
2019-02-17T12:21:12.411Z,56.51
2019-02-17T12:23:48.353Z,55.97
2019-02-17T12:26:24.208Z,56.03
2019-02-17T12:28:57.358Z,56.25
2019-02-17T12:31:30.747Z,56.21
2019-02-17T12:34:02.270Z,56.29
2019-02-17T12:36:33.789Z,56.38
2019-02-17T12:39:06.219Z,55.77
2019-02-17T12:41:37.749Z,55.72
2019-02-17T12:44:09.302Z,55.45
2019-02-17T12:46:40.836Z,54.79
2019-02-17T12:49:12.422Z,55.86
2019-02-17T12:51:43.946Z,55.85
2019-02-17T12:54:15.554Z,56.27
2019-02-17T12:56:47.074Z,56.10
2019-02-17T12:59:18.598Z,55.39
2019-02-17T13:01:50.125Z,55.37
2019-02-17T13:04:21.708Z,55.68
2019-02-17T13:06:53.219Z,55.41
2019-02-17T13:09:24.743Z,54.89
2019-02-17T13:11:56.336Z,54.24
2019-02-17T13:14:27.866Z,53.61
2019-02-17T13:16:59.379Z,53.70
2019-02-17T13:19:30.888Z,54.30
2019-02-17T13:22:02.461Z,54.16
2019-02-17T13:24:33.997Z,53.08
2019-02-17T13:27:05.510Z,52.42
2019-02-17T13:29:52.998Z,51.67
2019-02-17T13:32:24.503Z,51.76
2019-02-17T13:34:56.032Z,51.53
2019-02-17T13:37:30.119Z,51.56
2019-02-17T13:40:00.966Z,51.05
2019-02-17T13:42:33.568Z,50.95
2019-02-17T13:45:08.665Z,51.15
2019-02-17T13:47:40.190Z,51.10
2019-02-17T13:50:16.843Z,51.25
2019-02-17T13:52:48.353Z,51.39
2019-02-17T13:55:19.856Z,51.03
2019-02-17T13:57:52.415Z,50.79
2019-02-17T14:00:25.185Z,51.25
2019-02-17T14:02:56.724Z,52.46
2019-02-17T14:05:28.294Z,52.74
2019-02-17T14:07:59.920Z,52.60
2019-02-17T14:10:31.447Z,51.84
2019-02-17T14:13:02.979Z,51.45
2019-02-17T14:15:34.485Z,51.18
2019-02-17T14:18:06.071Z,51.07
2019-02-17T14:20:37.588Z,51.09
2019-02-17T14:23:09.168Z,51.05
2019-02-17T14:25:40.929Z,51.63
2019-02-17T14:28:12.468Z,51.88
2019-02-17T14:30:43.994Z,51.71
2019-02-17T14:33:15.529Z,51.53
2019-02-17T14:35:47.044Z,51.50
2019-02-17T14:38:18.576Z,51.66
2019-02-17T14:40:50.116Z,52.83
2019-02-17T14:43:21.762Z,52.34
2019-02-17T14:45:55.857Z,52.03
2019-02-17T14:48:27.636Z,51.84
2019-02-17T14:51:02.251Z,51.68
2019-02-17T14:53:33.840Z,51.43
2019-02-17T14:56:05.373Z,51.32
2019-02-17T14:58:36.898Z,51.22
2019-02-17T15:01:08.539Z,51.24
2019-02-17T15:03:40.110Z,51.47
2019-02-17T15:06:14.341Z,52.63
2019-02-17T15:08:52.037Z,53.41
2019-02-17T15:11:24.510Z,53.42
2019-02-17T15:14:06.561Z,53.35
2019-02-17T15:16:38.163Z,52.97
2019-02-17T15:19:09.914Z,52.91
2019-02-17T15:21:42.661Z,53.01
2019-02-17T15:24:14.186Z,53.20
2019-02-17T15:26:45.922Z,53.40
2019-02-17T15:29:17.599Z,53.34
2019-02-17T15:31:49.395Z,53.43
2019-02-17T15:34:21.034Z,53.52
2019-02-17T15:36:52.534Z,53.42
2019-02-17T15:39:24.066Z,53.41
2019-02-17T15:41:55.569Z,53.45
2019-02-17T15:44:27.141Z,53.57
2019-02-17T15:46:58.695Z,53.50
2019-02-17T15:49:30.220Z,53.51
2019-02-17T15:52:01.748Z,53.45
2019-02-17T15:54:33.277Z,53.51
2019-02-17T15:57:04.783Z,53.60
2019-02-17T15:59:36.285Z,53.71
2019-02-17T16:02:07.804Z,53.81
2019-02-17T16:04:39.327Z,53.98
2019-02-17T16:07:10.929Z,54.12
2019-02-17T16:09:42.435Z,54.28
2019-02-17T16:12:14.086Z,54.45
2019-02-17T16:14:45.604Z,54.79
2019-02-17T16:17:17.129Z,54.98
2019-02-17T16:19:48.681Z,55.13
2019-02-17T16:22:20.271Z,55.19
2019-02-17T16:24:51.784Z,55.30
2019-02-17T16:27:23.416Z,55.43
2019-02-17T16:29:54.943Z,55.47
2019-02-17T16:32:26.464Z,55.53
2019-02-17T16:34:58.003Z,55.61
2019-02-17T16:37:29.589Z,55.96
2019-02-17T16:40:01.116Z,56.18
2019-02-17T16:42:33.909Z,56.40
2019-02-17T16:45:09.684Z,56.47
2019-02-17T16:47:41.393Z,56.50
2019-02-17T16:50:29.472Z,56.81
2019-02-17T16:53:01.051Z,57.07
2019-02-17T16:55:32.575Z,57.13
2019-02-17T16:58:04.204Z,57.16
2019-02-17T17:00:35.785Z,57.44
2019-02-17T17:03:07.312Z,57.70
2019-02-17T17:05:38.859Z,58.05
2019-02-17T17:08:10.398Z,58.13
2019-02-17T17:10:42.619Z,58.50
2019-02-17T17:13:15.714Z,58.46
2019-02-17T17:15:47.241Z,58.79
2019-02-17T17:18:19.788Z,58.93
2019-02-17T17:20:51.661Z,59.26
2019-02-17T17:23:23.235Z,59.08
2019-02-17T17:25:54.763Z,60.27
2019-02-17T17:28:26.290Z,61.25
2019-02-17T17:30:57.885Z,62.05
2019-02-17T17:33:29.927Z,62.48
2019-02-17T17:36:01.581Z,63.02
2019-02-17T17:38:33.202Z,63.10
2019-02-17T17:41:05.965Z,64.26
2019-02-17T17:43:37.894Z,64.27
2019-02-17T17:46:09.530Z,64.62
2019-02-17T17:48:41.107Z,64.45
2019-02-17T17:51:12.906Z,64.06
2019-02-17T17:53:44.547Z,64.10
2019-02-17T17:56:16.191Z,64.62
2019-02-17T17:58:48.366Z,66.15
2019-02-17T18:01:19.862Z,66.46
2019-02-17T18:03:51.408Z,66.24
2019-02-17T18:06:23.023Z,66.13
2019-02-17T18:08:54.795Z,65.59
2019-02-17T18:11:26.354Z,65.24
2019-02-17T18:13:57.840Z,65.08
2019-02-17T18:16:29.346Z,64.98
2019-02-17T18:19:00.967Z,65.60
2019-02-17T18:21:32.461Z,65.73
2019-02-17T18:24:04.053Z,66.21
2019-02-17T18:26:35.640Z,66.39
2019-02-17T18:29:07.165Z,66.38
2019-02-17T18:31:38.700Z,66.47
2019-02-17T18:34:10.224Z,66.29
2019-02-17T18:36:49.546Z,64.41
2019-02-17T18:39:21.078Z,64.38
2019-02-17T18:41:52.578Z,64.39
2019-02-17T18:44:24.077Z,64.12
2019-02-17T18:46:55.581Z,63.86
2019-02-17T18:49:27.404Z,64.01
2019-02-17T18:51:58.931Z,64.03
2019-02-17T18:54:30.517Z,64.34
2019-02-17T18:57:08.345Z,64.39
2019-02-17T18:59:36.538Z,65.45
2019-02-17T19:02:08.032Z,65.55
2019-02-17T19:04:39.571Z,65.79
2019-02-17T19:07:11.160Z,65.72
2019-02-17T19:09:42.713Z,65.61
2019-02-17T19:12:14.212Z,65.48
2019-02-17T19:14:45.729Z,65.55
2019-02-17T19:17:17.370Z,66.06
2019-02-17T19:19:48.966Z,66.65
2019-02-17T19:22:20.545Z,67.20
2019-02-17T19:24:52.058Z,67.51
2019-02-17T19:27:23.666Z,67.03
2019-02-17T19:29:55.183Z,66.85
2019-02-17T19:32:26.702Z,67.03
2019-02-17T19:34:58.241Z,66.49
2019-02-17T19:37:29.742Z,66.73
2019-02-17T19:40:01.262Z,67.15
2019-02-17T19:42:34.085Z,66.81
2019-02-17T19:45:12.437Z,66.56
2019-02-17T19:47:43.971Z,65.70
2019-02-17T19:50:16.497Z,65.87
2019-02-17T19:52:48.050Z,66.07
2019-02-17T19:55:19.581Z,66.10
2019-02-17T19:57:51.121Z,66.10
2019-02-17T20:00:23.155Z,66.80
2019-02-17T20:03:00.310Z,66.38
2019-02-17T20:05:35.257Z,66.19
2019-02-17T20:08:07.202Z,66.22
2019-02-17T20:10:44.002Z,66.88
2019-02-17T20:13:15.583Z,67.13
2019-02-17T20:15:47.155Z,67.00
2019-02-17T20:18:18.678Z,66.75
2019-02-17T20:20:50.180Z,66.31
2019-02-17T20:26:08.019Z,66.75
2019-02-17T20:28:44.618Z,66.93
2019-02-17T20:31:16.181Z,67.50
2019-02-17T20:33:47.796Z,67.48
2019-02-17T20:36:19.326Z,66.96
2019-02-17T20:38:50.846Z,66.92
2019-02-17T20:41:22.342Z,67.03
2019-02-17T20:43:54.043Z,67.08
2019-02-17T20:46:25.595Z,66.61
2019-02-17T20:48:57.191Z,66.18
2019-02-17T20:51:28.756Z,65.85
2019-02-17T20:54:00.333Z,66.28
2019-02-17T20:56:31.922Z,66.38
2019-02-17T20:59:03.492Z,66.27
2019-02-17T21:01:35.136Z,66.38
2019-02-17T21:04:06.670Z,66.68
2019-02-17T21:06:38.304Z,66.62
2019-02-17T21:09:14.752Z,66.81
2019-02-17T21:11:47.777Z,67.37
2019-02-17T21:14:19.310Z,67.46
2019-02-17T21:16:50.937Z,67.05
2019-02-17T21:19:22.550Z,66.57
2019-02-17T21:21:54.058Z,66.28
2019-02-17T21:24:25.610Z,66.60
2019-02-17T21:26:57.658Z,67.80
2019-02-17T21:29:29.190Z,67.29
2019-02-17T21:32:00.861Z,68.41
2019-02-17T21:34:33.339Z,69.29
2019-02-17T21:37:04.866Z,69.17
2019-02-17T21:39:36.370Z,69.14
2019-02-17T21:42:07.895Z,69.02
2019-02-17T21:44:39.445Z,68.62
2019-02-17T21:47:10.979Z,68.43
2019-02-17T21:49:42.515Z,67.71
2019-02-17T21:52:14.019Z,67.84
2019-02-17T21:54:45.552Z,67.84
2019-02-17T21:57:17.080Z,68.41
2019-02-17T21:59:49.558Z,68.67
2019-02-17T22:02:21.108Z,68.05
2019-02-17T22:04:52.669Z,67.85
2019-02-17T22:07:24.184Z,67.44
2019-02-17T22:09:55.882Z,66.97
2019-02-17T22:12:27.387Z,66.96
2019-02-17T22:14:58.909Z,67.75
2019-02-17T22:17:30.446Z,67.46
2019-02-17T22:20:01.980Z,67.28
2019-02-17T22:22:33.651Z,67.31
2019-02-17T22:25:07.372Z,66.98
2019-02-17T22:27:38.888Z,66.53
2019-02-17T22:30:12.976Z,66.75
2019-02-17T22:32:44.580Z,66.89
2019-02-17T22:35:16.095Z,67.03
2019-02-17T22:37:47.630Z,66.67
2019-02-17T22:40:19.145Z,66.73
2019-02-17T22:42:50.732Z,67.10
2019-02-17T22:45:22.325Z,66.98
2019-02-17T22:47:53.847Z,66.64
2019-02-17T22:50:25.434Z,66.94
2019-02-17T22:52:57.028Z,67.27
2019-02-17T22:55:28.622Z,67.22
2019-02-17T22:58:00.123Z,66.88
2019-02-17T23:00:45.905Z,67.21
2019-02-17T23:03:17.583Z,67.20
2019-02-17T23:05:49.123Z,68.23
2019-02-17T23:08:20.620Z,68.34
2019-02-17T23:10:52.224Z,68.48
2019-02-17T23:13:23.884Z,68.66
2019-02-17T23:15:56.375Z,68.13
2019-02-17T23:18:28.037Z,67.57
2019-02-17T23:20:59.553Z,67.03
2019-02-17T23:23:31.151Z,66.44
2019-02-17T23:26:02.743Z,65.99
2019-02-17T23:28:34.266Z,66.41
2019-02-17T23:31:05.782Z,66.52
2019-02-17T23:33:37.298Z,66.16
2019-02-17T23:36:09.897Z,66.43
2019-02-17T23:38:41.478Z,66.17
2019-02-17T23:41:13.027Z,66.10
2019-02-17T23:43:44.606Z,66.85
2019-02-17T23:46:16.230Z,67.54
2019-02-17T23:48:47.741Z,67.35
2019-02-17T23:51:19.257Z,67.50
2019-02-17T23:53:50.790Z,67.53
2019-02-17T23:56:22.291Z,67.40
2019-02-17T23:58:53.806Z,67.25
